Time;durP1;ratioP1;P1;durP2;ratioP2;P2;SDS_P1;SDS_P2;PMS_P1;PMS_P2;Temp;Humidity;BMP_temperature;BMP_pressure;BME280_temperature;BME280_humidity;BME280_pressure;Samples;Min_cycle;Max_cycle;Signal;HPM_P1;HPM_P2
2022/03/01 00:00:44;;;;;;;9.40;9.10;;;-0.20;99.90;;;;;;5932733;24;20200;-83
2022/03/01 00:04:27;;;;;;;;;;;;;;;;;;;;;
2022/03/01 00:07:32;;;;;;;9.50;9.20;;;-0.30;99.90;;;;;;6110180;23;20212;-83
2022/03/01 00:10:38;;;;;;;9.47;9.17;;;-0.20;99.90;;;;;;6064586;23;20236;-83
2022/03/01 00:17:06;;;;;;;9.40;9.10;;;-0.30;99.90;;;;;;6107706;23;20219;-83
2022/03/01 00:23:19;;;;;;;9.40;9.10;;;-0.30;99.90;;;;;;6105766;23;20292;-83
2022/03/01 00:26:25;;;;;;;9.50;9.20;;;-0.30;99.90;;;;;;6108003;23;20209;-83
2022/03/01 00:38:32;;;;;;;9.20;8.90;;;-0.40;99.90;;;;;;6079210;23;20206;-83
2022/03/01 00:41:53;;;;;;;;;;;;;;;;;;;;;
2022/03/01 01:16:14;;;;;;;9.27;8.97;;;-0.50;99.90;;;;;;5977945;23;20205;-83
2022/03/01 01:41:17;;;;;;;9.63;9.33;;;-0.50;99.90;;;;;;5953611;24;20209;-82
2022/03/01 01:47:48;;;;;;;;;;;;;;;;;;;;;
2022/03/01 02:53:34;;;;;;;;;;;;;;;;;;;;;
2022/03/01 03:16:33;;;;;;;;;;;;;;;;;;;;;
2022/03/01 03:26:15;;;;;;;8.50;8.30;;;-1.00;99.90;;;;;;6135139;23;20284;-83
2022/03/01 05:46:13;;;;;;;9.50;9.20;;;-2.40;99.90;;;;;;5820440;23;20218;-81
2022/03/01 05:48:41;;;;;;;9.80;9.50;;;-2.40;99.90;;;;;;6108292;23;20213;-81
2022/03/01 05:51:09;;;;;;;9.87;9.57;;;-2.40;99.90;;;;;;6108035;23;20224;-81
2022/03/01 05:53:37;;;;;;;10.27;9.97;;;-2.50;99.90;;;;;;6108090;23;20223;-81
2022/03/01 05:56:05;;;;;;;9.67;9.37;;;-2.50;99.90;;;;;;6107557;23;20213;-82
2022/03/01 05:58:33;;;;;;;10.00;9.70;;;-2.50;99.90;;;;;;6107945;23;20202;-81
2022/03/01 06:01:00;;;;;;;10.40;10.10;;;-2.50;99.90;;;;;;6108247;23;20210;-81
2022/03/01 06:03:30;;;;;;;10.20;9.90;;;-2.40;99.90;;;;;;6108079;23;20225;-81
2022/03/01 06:05:58;;;;;;;10.17;9.87;;;-2.30;99.90;;;;;;6107850;23;20205;-81
2022/03/01 06:08:25;;;;;;;10.37;10.07;;;-2.30;99.90;;;;;;6116979;23;20206;-81
2022/03/01 06:10:53;;;;;;;10.20;9.90;;;-2.30;99.90;;;;;;6112577;23;20207;-80
2022/03/01 06:13:21;;;;;;;9.83;9.53;;;-2.30;99.90;;;;;;6118773;23;20201;-79
2022/03/01 06:15:49;;;;;;;9.60;9.30;;;-2.30;99.90;;;;;;6118351;23;20212;-80
2022/03/01 06:18:17;;;;;;;10.07;9.77;;;-2.20;99.90;;;;;;6122951;23;20190;-80
2022/03/01 06:20:47;;;;;;;9.50;9.20;;;-2.20;99.90;;;;;;6116568;23;20204;-80
2022/03/01 06:23:15;;;;;;;9.90;9.60;;;-2.20;99.90;;;;;;6111029;23;20204;-80
2022/03/01 06:25:45;;;;;;;9.70;9.40;;;-2.20;99.90;;;;;;6108641;23;20210;-80
2022/03/01 06:28:13;;;;;;;9.60;9.30;;;-2.10;99.90;;;;;;6115951;23;20199;-80
2022/03/01 06:30:41;;;;;;;9.70;9.40;;;-2.10;99.90;;;;;;6118785;23;20249;-80
2022/03/01 06:33:08;;;;;;;9.63;9.33;;;-2.00;99.90;;;;;;6111783;23;20221;-80
2022/03/01 06:35:36;;;;;;;9.97;9.67;;;-2.00;99.90;;;;;;6114449;23;20194;-80
2022/03/01 06:38:06;;;;;;;10.17;9.87;;;-2.00;99.90;;;;;;6114313;23;20202;-80
2022/03/01 06:40:34;;;;;;;10.00;9.70;;;-1.90;99.90;;;;;;6110265;23;20206;-80
2022/03/01 06:43:02;;;;;;;10.20;9.90;;;-2.00;99.90;;;;;;6108106;23;20194;-80
2022/03/01 06:45:29;;;;;;;10.20;9.90;;;-2.00;99.90;;;;;;6109791;23;20201;-80
2022/03/01 06:47:58;;;;;;;9.80;9.50;;;-2.10;99.90;;;;;;6141681;23;20182;-80
2022/03/01 06:50:26;;;;;;;9.83;9.53;;;-2.10;99.90;;;;;;6143331;23;20203;-80
2022/03/01 06:52:54;;;;;;;10.00;9.70;;;-2.00;99.90;;;;;;6138039;23;20256;-80
2022/03/01 06:55:23;;;;;;;10.20;9.90;;;-1.90;99.90;;;;;;6137950;23;20213;-80
2022/03/01 06:57:53;;;;;;;10.13;9.83;;;-1.80;99.90;;;;;;6137724;23;20193;-81
2022/03/01 07:00:21;;;;;;;10.20;9.90;;;-1.60;99.90;;;;;;6137643;23;20309;-80
2022/03/01 07:02:49;;;;;;;10.00;9.70;;;-1.50;99.90;;;;;;6137791;23;20225;-80
2022/03/01 07:05:19;;;;;;;10.23;9.93;;;-1.50;99.90;;;;;;6137745;23;20203;-79
2022/03/01 07:07:48;;;;;;;10.00;9.70;;;-1.60;99.90;;;;;;6137922;23;20237;-82
2022/03/01 07:10:16;;;;;;;10.07;9.77;;;-1.60;99.90;;;;;;6137199;23;20282;-81
2022/03/01 07:12:47;;;;;;;10.00;9.70;;;-1.50;99.90;;;;;;6137643;23;20202;-84
2022/03/01 07:15:16;;;;;;;10.40;10.10;;;-1.50;99.90;;;;;;6138288;23;20212;-81
2022/03/01 07:17:43;;;;;;;10.20;9.90;;;-1.40;99.90;;;;;;6138442;23;20267;-81
2022/03/01 07:20:12;;;;;;;10.33;10.03;;;-1.30;99.90;;;;;;6137749;23;20202;-81
2022/03/01 07:22:40;;;;;;;10.00;9.70;;;-1.30;99.90;;;;;;6137869;23;20268;-81
2022/03/01 07:25:09;;;;;;;9.63;9.33;;;-1.20;99.90;;;;;;6137114;23;20205;-80
2022/03/01 07:27:37;;;;;;;10.13;9.83;;;-1.20;99.90;;;;;;6139317;23;20230;-81
2022/03/01 07:30:08;;;;;;;10.07;9.77;;;-1.10;99.90;;;;;;6139632;23;20206;-81
2022/03/01 07:32:36;;;;;;;10.33;10.03;;;-1.10;99.90;;;;;;6137981;23;20196;-80
2022/03/01 07:35:05;;;;;;;10.30;10.00;;;-1.00;99.90;;;;;;6135499;23;20296;-80
2022/03/01 07:37:34;;;;;;;10.23;9.93;;;-0.90;99.90;;;;;;6135622;23;20205;-80
2022/03/01 07:40:02;;;;;;;10.17;9.87;;;-0.80;99.90;;;;;;6134598;23;20295;-79
2022/03/01 07:42:30;;;;;;;9.87;9.57;;;-0.70;99.90;;;;;;6134877;23;20273;-80
2022/03/01 07:44:58;;;;;;;9.87;9.57;;;-0.60;99.90;;;;;;6135029;23;20190;-80
2022/03/01 07:47:27;;;;;;;10.30;10.00;;;-0.50;99.90;;;;;;6136843;23;20208;-79
2022/03/01 07:49:55;;;;;;;10.23;9.93;;;-0.40;99.90;;;;;;6136267;23;20237;-80
2022/03/01 07:52:23;;;;;;;10.20;9.90;;;-0.30;99.90;;;;;;6135567;23;20200;-80
2022/03/01 07:54:50;;;;;;;10.10;9.80;;;-0.20;99.90;;;;;;6135491;23;20207;-80
2022/03/01 07:57:19;;;;;;;10.17;9.87;;;-0.10;99.90;;;;;;6147687;23;20201;-80
2022/03/01 07:59:47;;;;;;;10.17;9.87;;;0.00;99.90;;;;;;6152781;23;20205;-80
2022/03/01 08:02:14;;;;;;;10.23;9.93;;;0.00;99.90;;;;;;6154926;23;20208;-80
2022/03/01 08:04:44;;;;;;;10.00;9.70;;;0.10;99.90;;;;;;6149495;23;20212;-80
2022/03/01 08:07:12;;;;;;;10.33;10.03;;;0.20;99.90;;;;;;6138964;23;20229;-80
2022/03/01 08:09:40;;;;;;;10.30;10.00;;;0.40;99.90;;;;;;6134643;23;20208;-80
2022/03/01 08:12:10;;;;;;;10.60;10.30;;;0.50;99.90;;;;;;6134613;23;20691;-80
2022/03/01 08:14:38;;;;;;;10.17;9.87;;;0.50;99.90;;;;;;6134517;23;20193;-80
2022/03/01 08:17:05;;;;;;;10.20;9.90;;;0.50;99.90;;;;;;6136795;23;20201;-80
2022/03/01 08:19:33;;;;;;;9.67;9.37;;;0.60;99.90;;;;;;6137833;23;20209;-80
2022/03/01 08:22:03;;;;;;;10.20;9.90;;;0.70;99.90;;;;;;6135734;23;20205;-80
2022/03/01 08:24:30;;;;;;;10.23;9.93;;;0.80;99.90;;;;;;6134178;23;20227;-80
2022/03/01 08:26:59;;;;;;;10.30;10.00;;;0.70;99.90;;;;;;6134205;23;20205;-80
2022/03/01 08:29:28;;;;;;;10.40;10.10;;;0.80;99.90;;;;;;6135034;23;20201;-80
2022/03/01 08:31:56;;;;;;;9.60;9.30;;;0.90;99.90;;;;;;6133879;23;20204;-80
2022/03/01 08:34:24;;;;;;;9.60;9.30;;;1.00;99.90;;;;;;6134146;23;20209;-80
2022/03/01 08:36:51;;;;;;;9.93;9.63;;;1.10;99.90;;;;;;6134269;23;20201;-80
2022/03/01 08:39:21;;;;;;;10.20;9.90;;;1.20;99.90;;;;;;6134370;23;20205;-80
2022/03/01 08:41:53;;;;;;;9.90;9.60;;;1.30;99.90;;;;;;6136134;23;20237;-80
2022/03/01 08:44:21;;;;;;;10.17;9.87;;;1.40;99.90;;;;;;6136345;23;20212;-80
2022/03/01 08:46:49;;;;;;;10.50;10.20;;;1.50;99.90;;;;;;6135547;23;20212;-79
2022/03/01 08:49:16;;;;;;;10.30;10.00;;;1.60;99.90;;;;;;6138491;23;20204;-80
2022/03/01 08:51:44;;;;;;;10.60;10.30;;;1.70;99.90;;;;;;6135440;23;20201;-80
2022/03/01 08:54:12;;;;;;;10.40;10.10;;;1.90;99.90;;;;;;6135589;23;20201;-80
2022/03/01 08:56:42;;;;;;;10.20;9.90;;;2.00;99.90;;;;;;6135006;23;20240;-80
2022/03/01 08:59:09;;;;;;;9.97;9.67;;;2.30;99.90;;;;;;6134560;23;20201;-80
2022/03/01 09:01:37;;;;;;;9.60;9.30;;;2.50;99.90;;;;;;6134049;23;20197;-80
2022/03/01 09:04:05;;;;;;;10.00;9.70;;;2.60;99.90;;;;;;6133455;23;20205;-80
2022/03/01 09:06:33;;;;;;;9.90;9.60;;;2.90;99.90;;;;;;6135619;23;20201;-80
2022/03/01 09:09:00;;;;;;;10.30;10.00;;;3.20;99.90;;;;;;6134986;23;20248;-80
2022/03/01 09:11:28;;;;;;;10.10;9.80;;;3.40;99.90;;;;;;6134365;23;20201;-80
2022/03/01 09:13:58;;;;;;;9.90;9.60;;;3.50;99.90;;;;;;6134491;23;20212;-80
2022/03/01 09:16:25;;;;;;;10.03;9.73;;;3.50;99.90;;;;;;6135369;23;20794;-80
2022/03/01 09:18:53;;;;;;;10.00;9.70;;;3.50;99.90;;;;;;6135023;23;20701;-80
2022/03/01 09:21:23;;;;;;;10.23;9.93;;;3.60;99.90;;;;;;6109969;23;20212;-80
2022/03/01 09:23:53;;;;;;;9.40;9.10;;;3.50;99.90;;;;;;6106295;23;20814;-80
2022/03/01 09:26:21;;;;;;;9.30;9.00;;;3.50;99.90;;;;;;6106000;23;20213;-80
2022/03/01 09:28:49;;;;;;;9.60;9.30;;;3.70;99.90;;;;;;6106617;23;20206;-80
2022/03/01 09:31:18;;;;;;;9.70;9.40;;;3.90;99.90;;;;;;6105595;23;20198;-80
2022/03/01 09:33:46;;;;;;;9.50;9.20;;;4.00;99.90;;;;;;6105936;23;20269;-80
2022/03/01 09:36:15;;;;;;;9.43;9.13;;;4.30;99.90;;;;;;6106100;23;20261;-80
2022/03/01 09:38:43;;;;;;;9.33;9.03;;;4.40;99.90;;;;;;6106965;23;20228;-80
2022/03/01 09:41:12;;;;;;;9.53;9.23;;;4.30;99.90;;;;;;6106494;23;20212;-80
2022/03/01 09:43:42;;;;;;;9.40;9.10;;;4.50;99.90;;;;;;6106392;23;20205;-80
2022/03/01 09:46:11;;;;;;;9.43;9.13;;;4.60;99.90;;;;;;6105461;23;20236;-80
2022/03/01 09:48:40;;;;;;;9.80;9.50;;;4.70;99.90;;;;;;6105701;23;20198;-80
2022/03/01 09:51:09;;;;;;;9.90;9.60;;;4.60;99.90;;;;;;6105622;23;20214;-81
2022/03/01 09:53:37;;;;;;;9.83;9.53;;;4.80;99.90;;;;;;6104808;23;20249;-80
2022/03/01 09:56:07;;;;;;;10.00;9.70;;;5.00;99.90;;;;;;6105444;23;20202;-80
2022/03/01 09:58:35;;;;;;;9.77;9.47;;;5.00;99.90;;;;;;6104892;23;20208;-80
2022/03/01 10:01:03;;;;;;;10.00;9.70;;;5.00;99.90;;;;;;6105402;23;20261;-80
2022/03/01 10:03:34;;;;;;;9.60;9.30;;;5.20;99.90;;;;;;6107187;23;20681;-80
2022/03/01 10:06:10;;;;;;;10.00;9.70;;;5.50;99.90;;;;;;6106670;23;20229;-80
2022/03/01 10:08:38;;;;;;;9.97;9.67;;;5.60;99.90;;;;;;6106746;23;20218;-80
2022/03/01 10:11:06;;;;;;;9.90;9.60;;;5.80;99.90;;;;;;6106579;23;20201;-80
2022/03/01 10:13:36;;;;;;;9.73;9.43;;;6.10;99.90;;;;;;6105520;23;20218;-80
2022/03/01 10:16:06;;;;;;;9.60;9.30;;;6.30;99.90;;;;;;6106649;23;20205;-80
2022/03/01 10:18:39;;;;;;;10.00;9.70;;;6.40;99.90;;;;;;6106954;23;20194;-80
2022/03/01 10:21:10;;;;;;;9.80;9.50;;;6.50;99.90;;;;;;6106416;23;20194;-80
2022/03/01 10:23:39;;;;;;;9.83;9.53;;;6.60;99.90;;;;;;6106148;23;20264;-80
2022/03/01 10:26:14;;;;;;;10.10;9.80;;;6.60;99.90;;;;;;6107521;23;20208;-79
2022/03/01 10:28:43;;;;;;;10.27;9.97;;;6.90;99.90;;;;;;6107053;23;20206;-80
2022/03/01 10:31:17;;;;;;;10.40;10.10;;;7.40;99.90;;;;;;6106206;23;20197;-80
2022/03/01 10:33:56;;;;;;;10.20;9.90;;;7.60;99.90;;;;;;6105925;23;20197;-80
2022/03/01 10:36:32;;;;;;;10.70;10.40;;;7.90;99.90;;;;;;6106646;23;20228;-80
2022/03/01 10:39:02;;;;;;;10.47;10.17;;;7.90;99.90;;;;;;6105931;23;20204;-80
2022/03/01 10:41:32;;;;;;;10.37;10.07;;;7.80;99.90;;;;;;6105686;23;20205;-79
2022/03/01 10:44:03;;;;;;;10.40;10.10;;;8.00;99.90;;;;;;6106045;23;20205;-80
2022/03/01 10:46:32;;;;;;;10.60;10.30;;;7.70;99.90;;;;;;6108835;23;20216;-80
2022/03/01 10:49:05;;;;;;;10.50;10.20;;;7.30;99.90;;;;;;6110342;23;20197;-80
2022/03/01 10:51:36;;;;;;;10.03;9.73;;;7.30;99.90;;;;;;6106632;23;20222;-80
2022/03/01 10:54:04;;;;;;;10.20;9.90;;;7.30;99.90;;;;;;6105973;23;20273;-80
2022/03/01 10:56:39;;;;;;;10.37;10.07;;;7.30;99.90;;;;;;6106127;23;20208;-80
2022/03/01 10:59:08;;;;;;;10.50;10.20;;;7.50;99.90;;;;;;6105844;23;20201;-80
2022/03/01 11:01:36;;;;;;;10.10;9.80;;;7.60;99.90;;;;;;6105692;23;20277;-80
2022/03/01 11:04:06;;;;;;;10.40;10.10;;;7.40;99.90;;;;;;6105736;23;20266;-80
2022/03/01 11:06:36;;;;;;;10.53;10.23;;;7.40;99.90;;;;;;6107435;23;20209;-80
2022/03/01 11:09:05;;;;;;;10.57;10.27;;;7.60;99.90;;;;;;6107801;23;20193;-80
2022/03/01 11:11:34;;;;;;;10.27;9.97;;;7.90;99.90;;;;;;6105929;23;20313;-80
2022/03/01 11:14:03;;;;;;;10.43;10.13;;;8.40;99.90;;;;;;6107065;23;20212;-80
2022/03/01 11:16:47;;;;;;;10.40;10.10;;;8.90;99.90;;;;;;6107483;23;20288;-80
2022/03/01 11:19:36;;;;;;;10.27;9.97;;;9.20;99.90;;;;;;6106936;23;20189;-79
2022/03/01 11:22:06;;;;;;;10.20;9.90;;;9.40;99.90;;;;;;6106456;23;20272;-80
2022/03/01 11:24:35;;;;;;;10.67;10.37;;;9.80;99.90;;;;;;6107161;23;20209;-80
2022/03/01 11:27:07;;;;;;;10.60;10.30;;;10.30;99.90;;;;;;6107961;23;20201;-79
2022/03/01 11:29:40;;;;;;;10.63;10.33;;;10.20;99.90;;;;;;6107451;23;20230;-80
2022/03/01 11:32:14;;;;;;;10.30;10.00;;;10.10;99.90;;;;;;6107812;23;20197;-79
2022/03/01 11:34:42;;;;;;;10.10;9.80;;;10.60;99.90;;;;;;6110191;23;20222;-80
2022/03/01 11:37:20;;;;;;;10.40;10.10;;;11.00;99.90;;;;;;6112667;23;20202;-81
2022/03/01 11:39:57;;;;;;;10.10;9.80;;;11.20;99.90;;;;;;6110017;23;20193;-80
2022/03/01 11:42:25;;;;;;;10.00;9.70;;;11.10;99.90;;;;;;6108558;23;20189;-80
2022/03/01 11:44:55;;;;;;;10.17;9.87;;;10.90;99.90;;;;;;6108221;23;20230;-80
2022/03/01 13:55:00;;;;;;;10.00;9.70;;;13.20;87.20;;;;;;6084338;23;20212;-87
2022/03/01 18:39:40;;;;;;;;;;;;;;;;;;;;;
2022/03/01 20:19:55;;;;;;;9.50;9.20;;;2.40;99.90;;;;;;6350258;22;20282;-83
2022/03/01 21:14:13;;;;;;;9.60;9.30;;;1.40;99.90;;;;;;6058801;23;20194;-83
